createdAt,value
2018-06-27T00:00:16.792Z,55.5
2018-06-27T00:01:06.510Z,55.4
2018-06-27T00:01:56.887Z,55.4
2018-06-27T00:02:47.232Z,55.4
2018-06-27T00:03:37.312Z,55.4
2018-06-27T00:04:26.480Z,55.4
2018-06-27T00:05:17.112Z,55.4
2018-06-27T00:06:07.159Z,55.4
2018-06-27T00:06:57.533Z,55.4
2018-06-27T00:07:47.564Z,55.4
2018-06-27T00:08:37.088Z,55.4
2018-06-27T00:09:27.398Z,55.4
2018-06-27T00:10:17.480Z,55.3
2018-06-27T00:11:07.805Z,55.3
2018-06-27T00:11:57.042Z,55.3
2018-06-27T00:12:47.399Z,55.3
2018-06-27T00:13:37.472Z,55.3
2018-06-27T00:14:27.835Z,55.3
2018-06-27T00:15:17.629Z,55.3
2018-06-27T00:16:08.209Z,55.3
2018-06-27T00:16:57.731Z,55.3
2018-06-27T00:17:47.773Z,55.3
2018-06-27T00:18:37.849Z,55.3
2018-06-27T00:19:29.355Z,55.3
2018-06-27T00:20:18.268Z,55.2
2018-06-27T00:21:07.814Z,55.2
2018-06-27T00:21:58.655Z,55.2
2018-06-27T00:22:48.435Z,55.2
2018-06-27T00:23:38.224Z,55.2
2018-06-27T00:24:28.815Z,55.1
2018-06-27T00:25:18.756Z,55.1
2018-06-27T00:26:08.500Z,55.1
2018-06-27T00:26:58.456Z,55.1
2018-06-27T00:27:49.067Z,55.1
2018-06-27T00:28:38.553Z,55.1
2018-06-27T00:29:29.198Z,55.1
2018-06-27T00:30:18.693Z,55.1
2018-06-27T00:31:09.040Z,55.1
2018-06-27T00:31:59.370Z,55.1
2018-06-27T00:32:48.904Z,55.1
2018-06-27T00:33:39.493Z,55.1
2018-06-27T00:34:29.308Z,55.1
2018-06-27T00:35:19.651Z,55.1
2018-06-27T00:36:09.159Z,55
2018-06-27T00:36:59.752Z,55
2018-06-27T00:37:49.565Z,55
2018-06-27T00:38:39.324Z,55
2018-06-27T00:39:29.958Z,54.9
2018-06-27T00:40:20.000Z,54.9
2018-06-27T00:41:08.932Z,54.9
2018-06-27T00:41:59.907Z,54.9
2018-06-27T00:42:49.357Z,54.9
2018-06-27T00:43:39.701Z,54.9
2018-06-27T00:44:29.761Z,54.9
2018-06-27T00:45:20.129Z,54.9
2018-06-27T00:46:10.496Z,54.9
2018-06-27T00:46:59.929Z,54.9
2018-06-27T00:47:50.595Z,54.9
2018-06-27T00:48:40.392Z,54.9
2018-06-27T00:49:30.704Z,54.8
2018-06-27T00:50:20.808Z,54.8
2018-06-27T00:51:10.551Z,54.8
2018-06-27T00:52:00.617Z,54.8
2018-06-27T00:52:50.121Z,54.8
2018-06-27T00:53:40.072Z,54.8
2018-06-27T00:54:31.055Z,54.8
2018-06-27T00:55:20.615Z,54.8
2018-06-27T00:56:11.216Z,54.8
2018-06-27T00:57:01.290Z,54.8
2018-06-27T00:57:50.748Z,54.8
2018-06-27T00:58:41.415Z,54.8
2018-06-27T00:59:31.193Z,54.7
2018-06-27T01:00:21.235Z,54.7
2018-06-27T01:01:11.027Z,54.7
2018-06-27T01:02:00.815Z,54.7
2018-06-27T01:02:51.699Z,54.7
2018-06-27T01:03:41.470Z,54.7
2018-06-27T01:04:31.828Z,54.7
2018-06-27T01:05:21.887Z,54.6
2018-06-27T01:06:11.706Z,54.6
2018-06-27T01:07:02.038Z,54.6
2018-06-27T01:07:52.067Z,54.6
2018-06-27T01:08:42.164Z,54.6
2018-06-27T01:09:31.706Z,54.6
2018-06-27T01:10:22.253Z,54.6
2018-06-27T01:11:11.789Z,54.6
2018-06-27T01:12:02.409Z,54.6
2018-06-27T01:12:51.934Z,54.6
2018-06-27T01:13:42.515Z,54.6
2018-06-27T01:14:32.327Z,54.6
2018-06-27T01:15:22.670Z,54.5
2018-06-27T01:16:12.451Z,54.5
2018-06-27T01:17:01.942Z,54.5
2018-06-27T01:17:52.831Z,54.5
2018-06-27T01:18:42.374Z,54.5
2018-06-27T01:19:32.946Z,54.5
2018-06-27T01:20:22.461Z,54.4
2018-06-27T01:21:12.241Z,54.4
2018-06-27T01:22:03.156Z,54.4
2018-06-27T01:22:52.650Z,54.4
2018-06-27T01:23:43.279Z,54.4
2018-06-27T01:24:32.768Z,54.4
2018-06-27T01:25:23.140Z,54.4
2018-06-27T01:26:13.219Z,54.4
2018-06-27T01:27:03.326Z,54.4
2018-06-27T01:27:53.354Z,54.4
2018-06-27T01:28:43.681Z,54.4
2018-06-27T01:29:33.774Z,54.3
2018-06-27T01:30:23.514Z,54.3
2018-06-27T01:31:13.595Z,54.3
2018-06-27T01:32:03.944Z,54.3
2018-06-27T01:32:53.760Z,54.3
2018-06-27T01:33:43.752Z,54.3
2018-06-27T01:34:33.538Z,54.3
2018-06-27T01:35:23.989Z,54.3
2018-06-27T01:36:14.223Z,54.3
2018-06-27T01:37:04.324Z,54.3
2018-06-27T01:37:54.140Z,54.3
2018-06-27T01:38:44.159Z,54.3
2018-06-27T01:39:33.382Z,54.3
2018-06-27T01:40:24.638Z,54.2
2018-06-27T01:41:14.603Z,54.2
2018-06-27T01:42:03.811Z,54.2
2018-06-27T01:42:54.786Z,54.2
2018-06-27T01:43:44.771Z,54.2
2018-06-27T01:44:34.306Z,54.1
2018-06-27T01:45:24.643Z,54.1
2018-06-27T01:46:14.173Z,54.1
2018-06-27T01:47:04.518Z,54.1
2018-06-27T01:47:54.277Z,54.1
2018-06-27T01:48:44.628Z,54.1
2018-06-27T01:49:34.690Z,54.1
2018-06-27T01:50:25.324Z,54.1
2018-06-27T01:51:14.788Z,54.1
2018-06-27T01:52:05.145Z,54.1
2018-06-27T01:52:55.194Z,54.1
2018-06-27T01:53:45.254Z,54.1
2018-06-27T01:54:35.615Z,54
2018-06-27T01:55:25.150Z,54
2018-06-27T01:56:15.458Z,54
2018-06-27T01:57:05.855Z,54
2018-06-27T01:57:55.880Z,54
2018-06-27T01:58:45.360Z,54
2018-06-27T01:59:36.012Z,54
2018-06-27T02:00:26.075Z,54
2018-06-27T02:01:16.160Z,53.9
2018-06-27T02:02:05.889Z,53.9
2018-06-27T02:02:55.445Z,53.9
2018-06-27T02:03:46.009Z,53.9
2018-06-27T02:04:36.141Z,53.9
2018-06-27T02:05:25.894Z,53.9
2018-06-27T02:06:16.543Z,53.9
2018-06-27T02:07:06.590Z,53.9
2018-06-27T02:07:56.346Z,53.9
2018-06-27T02:08:46.657Z,53.9
2018-06-27T02:09:36.750Z,53.9
2018-06-27T02:10:26.862Z,53.8
2018-06-27T02:11:16.357Z,53.8
2018-06-27T02:12:06.929Z,53.8
2018-06-27T02:12:56.731Z,53.8
2018-06-27T02:13:46.780Z,53.8
2018-06-27T02:14:37.145Z,53.8
2018-06-27T02:15:26.910Z,53.8
2018-06-27T02:16:16.965Z,53.8
2018-06-27T02:17:07.306Z,53.8
2018-06-27T02:17:57.191Z,53.8
2018-06-27T02:18:47.173Z,53.8
2018-06-27T02:19:37.510Z,53.8
2018-06-27T02:20:27.300Z,53.8
2018-06-27T02:21:17.622Z,53.7
2018-06-27T02:22:06.863Z,53.7
2018-06-27T02:22:57.524Z,53.7
2018-06-27T02:23:47.827Z,53.7
2018-06-27T02:24:37.617Z,53.7
2018-06-27T02:25:27.393Z,53.6
2018-06-27T02:26:17.707Z,53.6
2018-06-27T02:27:08.105Z,53.6
2018-06-27T02:27:58.189Z,53.6
2018-06-27T02:28:47.926Z,53.6
2018-06-27T02:29:37.150Z,53.6
2018-06-27T02:30:28.318Z,53.6
2018-06-27T02:31:18.435Z,53.6
2018-06-27T02:32:07.903Z,53.6
2018-06-27T02:32:58.273Z,53.6
2018-06-27T02:33:48.576Z,53.6
2018-06-27T02:34:38.714Z,53.6
2018-06-27T02:35:27.848Z,53.6
2018-06-27T02:36:18.764Z,53.5
2018-06-27T02:37:08.312Z,53.6
2018-06-27T02:37:58.636Z,53.5
2018-06-27T02:38:48.983Z,53.5
2018-06-27T02:39:39.028Z,53.5
2018-06-27T02:40:28.562Z,53.5
2018-06-27T02:41:19.154Z,53.5
2018-06-27T02:42:08.940Z,53.4
2018-06-27T02:42:59.301Z,53.4
2018-06-27T02:43:48.803Z,53.4
2018-06-27T02:44:38.870Z,53.4
2018-06-27T02:45:29.178Z,53.4
2018-06-27T02:46:19.537Z,53.4
2018-06-27T02:47:09.343Z,53.4
2018-06-27T02:47:59.105Z,53.4
2018-06-27T02:48:49.771Z,53.4
2018-06-27T02:49:39.596Z,53.4
2018-06-27T02:50:29.872Z,53.3
2018-06-27T02:51:19.375Z,53.4
2018-06-27T02:52:10.008Z,53.3
2018-06-27T02:52:59.498Z,53.3
2018-06-27T02:53:49.844Z,53.3
2018-06-27T02:54:40.189Z,53.3
2018-06-27T02:55:29.996Z,53.3
2018-06-27T02:56:19.483Z,53.3
2018-06-27T02:57:10.363Z,53.3
2018-06-27T02:58:00.141Z,53.3
2018-06-27T02:58:49.914Z,53.3
2018-06-27T02:59:40.277Z,53.3
2018-06-27T03:00:30.059Z,53.3
2018-06-27T03:01:19.850Z,53.3
2018-06-27T03:02:10.517Z,53.2
2018-06-27T03:03:00.536Z,53.2
2018-06-27T03:03:50.305Z,53.2
2018-06-27T03:04:40.365Z,53.2
2018-06-27T03:05:30.427Z,53.2
2018-06-27T03:06:21.118Z,53.2
2018-06-27T03:07:10.900Z,53.2
2018-06-27T03:08:00.915Z,53.1
2018-06-27T03:08:50.687Z,53.1
2018-06-27T03:09:41.039Z,53.1
2018-06-27T03:10:30.829Z,53.1
2018-06-27T03:11:20.604Z,53.1
2018-06-27T03:12:10.947Z,53.1
2018-06-27T03:13:01.309Z,53.1
2018-06-27T03:13:51.361Z,53.1
2018-06-27T03:14:41.380Z,53.1
2018-06-27T03:15:31.459Z,53.1
2018-06-27T03:16:21.521Z,53.1
2018-06-27T03:17:11.880Z,53
2018-06-27T03:18:01.957Z,53
2018-06-27T03:18:52.001Z,53
2018-06-27T03:19:41.757Z,52.9
2018-06-27T03:20:32.599Z,52.9
2018-06-27T03:21:21.353Z,52.9
2018-06-27T03:22:11.995Z,52.9
2018-06-27T03:23:02.364Z,52.9
2018-06-27T03:23:51.784Z,52.9
2018-06-27T03:24:42.145Z,52.8
2018-06-27T03:25:32.667Z,52.8
2018-06-27T03:26:22.297Z,52.8
2018-06-27T03:27:12.348Z,52.8
2018-06-27T03:28:02.405Z,52.8
2018-06-27T03:28:52.744Z,52.8
2018-06-27T03:29:41.690Z,52.8
2018-06-27T03:30:33.071Z,52.8
2018-06-27T03:31:22.942Z,52.8
2018-06-27T03:32:12.486Z,52.8
2018-06-27T03:33:02.787Z,52.8
2018-06-27T03:33:53.443Z,52.8
2018-06-27T03:34:42.941Z,52.7
2018-06-27T03:35:32.416Z,52.7
2018-06-27T03:36:22.756Z,52.7
2018-06-27T03:37:13.356Z,52.7
2018-06-27T03:38:03.188Z,52.7
2018-06-27T03:38:53.222Z,52.7
2018-06-27T03:39:43.298Z,52.7
2018-06-27T03:40:33.105Z,52.6
2018-06-27T03:41:23.673Z,52.6
2018-06-27T03:42:13.780Z,52.6
2018-06-27T03:43:03.585Z,52.6
2018-06-27T03:43:53.603Z,52.6
2018-06-27T03:44:43.431Z,52.6
2018-06-27T03:45:33.460Z,52.6
2018-06-27T03:46:24.136Z,52.6
2018-06-27T03:47:13.570Z,52.6
2018-06-27T03:48:04.171Z,52.6
2018-06-27T03:48:54.261Z,52.6
2018-06-27T03:49:44.038Z,52.6
2018-06-27T03:50:34.421Z,52.5
2018-06-27T03:51:24.434Z,52.5
2018-06-27T03:52:14.508Z,52.5
2018-06-27T03:53:04.279Z,52.5
2018-06-27T03:53:54.384Z,52.5
2018-06-27T03:54:44.132Z,52.5
2018-06-27T03:55:33.892Z,52.4
2018-06-27T03:56:24.892Z,52.5
2018-06-27T03:57:14.917Z,52.4
2018-06-27T03:58:04.697Z,52.4
2018-06-27T03:58:54.514Z,52.4
2018-06-27T22:30:40.560Z,57.9
2018-06-27T22:31:30.905Z,57.9
2018-06-27T22:32:20.912Z,57.8
2018-06-27T22:33:11.295Z,57.8
2018-06-27T22:34:01.341Z,57.8
2018-06-27T22:34:50.675Z,57.8
2018-06-27T22:38:11.400Z,57.7
2018-06-27T22:39:01.717Z,57.7
2018-06-27T22:39:51.786Z,57.7
2018-06-27T22:40:41.550Z,57.7
2018-06-27T22:41:32.340Z,57.6
2018-06-27T22:42:22.002Z,57.6
2018-06-27T22:43:11.770Z,57.6
2018-06-27T22:44:01.950Z,57.6
2018-06-27T22:44:52.394Z,57.6
2018-06-27T22:45:41.410Z,57.6
2018-06-27T22:46:32.307Z,57.6
2018-06-27T22:47:21.830Z,57.5
2018-06-27T22:48:11.578Z,57.5
2018-06-27T22:49:05.303Z,57.4
2018-06-27T22:49:56.419Z,57.4
2018-06-27T22:50:46.257Z,57.4
2018-06-27T22:51:36.052Z,57.4
2018-06-27T22:52:26.451Z,57.4
2018-06-27T22:53:16.203Z,57.4
2018-06-27T22:54:06.221Z,57.4
2018-06-27T22:54:56.304Z,57.4
2018-06-27T22:55:46.649Z,57.3
2018-06-27T22:56:36.681Z,57.3
2018-06-27T22:57:26.776Z,57.3
2018-06-27T22:58:16.846Z,57.3
2018-06-27T22:59:06.852Z,57.3
2018-06-27T22:59:57.005Z,57.3
2018-06-27T23:00:46.729Z,57.2
2018-06-27T23:01:37.066Z,57.2
2018-06-27T23:02:27.165Z,57.2
2018-06-27T23:03:16.923Z,57.1
2018-06-27T23:04:07.298Z,57.1
2018-06-27T23:04:57.044Z,57.1
2018-06-27T23:05:47.409Z,57.1
2018-06-27T23:06:37.218Z,57.1
2018-06-27T23:07:27.497Z,57.1
2018-06-27T23:08:17.287Z,57.1
2018-06-27T23:09:21.760Z,57
2018-06-27T23:09:57.471Z,57
2018-06-27T23:10:47.541Z,57
2018-06-27T23:11:37.576Z,56.9
2018-06-27T23:12:27.349Z,56.9
2018-06-27T23:13:17.994Z,56.9
2018-06-27T23:14:07.625Z,56.9
2018-06-27T23:14:57.508Z,56.9
2018-06-27T23:15:47.282Z,56.9
2018-06-27T23:16:37.888Z,56.9
2018-06-27T23:17:28.278Z,56.8
2018-06-27T23:18:18.544Z,56.8
2018-06-27T23:19:08.387Z,56.8
2018-06-27T23:19:58.149Z,56.8
2018-06-27T23:21:38.838Z,56.8
2018-06-27T23:22:28.614Z,56.8
2018-06-27T23:23:18.499Z,56.7
2018-06-27T23:24:08.222Z,56.7
2018-06-27T23:24:58.573Z,56.7
2018-06-27T23:25:48.876Z,56.6
2018-06-27T23:26:39.166Z,56.6
2018-06-27T23:27:29.158Z,56.6
2018-06-27T23:28:18.805Z,56.6
2018-06-27T23:29:09.178Z,56.6
2018-06-27T23:29:59.266Z,56.6
